sensor_id;sensor_type;location;lat;lon;timestamp;P1;durP1;ratioP1;P2;durP2;ratioP2
10884;SDS011;5495;53.252;10.390;2022-12-07T00:00:55;15.20;;;10.70;;
10884;SDS011;5495;53.252;10.390;2022-12-07T00:03:33;17.03;;;11.77;;
10884;SDS011;5495;53.252;10.390;2022-12-07T00:06:01;14.47;;;11.00;;
10884;SDS011;5495;53.252;10.390;2022-12-07T00:08:30;14.17;;;10.80;;
10884;SDS011;5495;53.252;10.390;2022-12-07T00:11:00;15.20;;;10.50;;
10884;SDS011;5495;53.252;10.390;2022-12-07T00:13:28;15.27;;;10.60;;
10884;SDS011;5495;53.252;10.390;2022-12-07T00:15:57;13.87;;;10.40;;
10884;SDS011;5495;53.252;10.390;2022-12-07T00:18:27;13.80;;;9.60;;
10884;SDS011;5495;53.252;10.390;2022-12-07T00:20:59;12.37;;;9.30;;
10884;SDS011;5495;53.252;10.390;2022-12-07T00:23:27;13.80;;;9.67;;
10884;SDS011;5495;53.252;10.390;2022-12-07T00:25:56;13.63;;;9.60;;
10884;SDS011;5495;53.252;10.390;2022-12-07T00:28:29;14.03;;;10.23;;
10884;SDS011;5495;53.252;10.390;2022-12-07T00:30:59;12.03;;;9.13;;
10884;SDS011;5495;53.252;10.390;2022-12-07T00:33:28;13.67;;;9.87;;
10884;SDS011;5495;53.252;10.390;2022-12-07T00:35:56;13.87;;;8.80;;
10884;SDS011;5495;53.252;10.390;2022-12-07T00:38:27;12.83;;;9.90;;
10884;SDS011;5495;53.252;10.390;2022-12-07T00:40:56;12.63;;;9.03;;
10884;SDS011;5495;53.252;10.390;2022-12-07T00:43:24;16.20;;;10.03;;
10884;SDS011;5495;53.252;10.390;2022-12-07T00:45:52;13.00;;;9.60;;
10884;SDS011;5495;53.252;10.390;2022-12-07T00:48:22;12.97;;;9.47;;
10884;SDS011;5495;53.252;10.390;2022-12-07T00:50:50;15.10;;;9.70;;
10884;SDS011;5495;53.252;10.390;2022-12-07T00:53:20;14.33;;;9.90;;
10884;SDS011;5495;53.252;10.390;2022-12-07T00:55:50;16.73;;;10.53;;
10884;SDS011;5495;53.252;10.390;2022-12-07T00:58:18;16.50;;;9.50;;
10884;SDS011;5495;53.252;10.390;2022-12-07T01:00:45;15.83;;;10.63;;
10884;SDS011;5495;53.252;10.390;2022-12-07T01:03:14;16.00;;;9.90;;
10884;SDS011;5495;53.252;10.390;2022-12-07T01:05:48;15.53;;;10.23;;
10884;SDS011;5495;53.252;10.390;2022-12-07T01:08:16;15.20;;;10.33;;
10884;SDS011;5495;53.252;10.390;2022-12-07T01:10:44;17.50;;;10.00;;
10884;SDS011;5495;53.252;10.390;2022-12-07T01:13:13;16.33;;;10.00;;
10884;SDS011;5495;53.252;10.390;2022-12-07T01:15:41;14.23;;;9.60;;
10884;SDS011;5495;53.252;10.390;2022-12-07T01:18:10;15.50;;;9.93;;
10884;SDS011;5495;53.252;10.390;2022-12-07T01:20:37;16.33;;;10.00;;
10884;SDS011;5495;53.252;10.390;2022-12-07T01:23:05;17.87;;;10.40;;
10884;SDS011;5495;53.252;10.390;2022-12-07T01:25:32;17.03;;;10.93;;
10884;SDS011;5495;53.252;10.390;2022-12-07T01:28:00;17.47;;;10.43;;
10884;SDS011;5495;53.252;10.390;2022-12-07T01:30:28;18.37;;;10.33;;
10884;SDS011;5495;53.252;10.390;2022-12-07T01:32:56;15.83;;;10.73;;
10884;SDS011;5495;53.252;10.390;2022-12-07T01:35:23;16.77;;;9.43;;
10884;SDS011;5495;53.252;10.390;2022-12-07T01:37:51;15.20;;;10.10;;
10884;SDS011;5495;53.252;10.390;2022-12-07T01:40:18;16.00;;;9.60;;
10884;SDS011;5495;53.252;10.390;2022-12-07T01:42:46;19.20;;;11.13;;
10884;SDS011;5495;53.252;10.390;2022-12-07T01:48:13;19.63;;;10.53;;
10884;SDS011;5495;53.252;10.390;2022-12-07T01:50:44;15.27;;;9.93;;
10884;SDS011;5495;53.252;10.390;2022-12-07T01:53:13;13.30;;;9.57;;
10884;SDS011;5495;53.252;10.390;2022-12-07T01:55:42;17.13;;;10.47;;
10884;SDS011;5495;53.252;10.390;2022-12-07T01:58:12;14.00;;;9.90;;
10884;SDS011;5495;53.252;10.390;2022-12-07T02:00:41;16.10;;;10.30;;
10884;SDS011;5495;53.252;10.390;2022-12-07T02:03:11;14.70;;;9.47;;
10884;SDS011;5495;53.252;10.390;2022-12-07T02:05:43;14.23;;;10.13;;
10884;SDS011;5495;53.252;10.390;2022-12-07T02:08:11;14.90;;;9.87;;
10884;SDS011;5495;53.252;10.390;2022-12-07T02:10:39;15.83;;;10.00;;
10884;SDS011;5495;53.252;10.390;2022-12-07T02:13:08;16.77;;;10.80;;
10884;SDS011;5495;53.252;10.390;2022-12-07T02:15:56;14.87;;;10.03;;
10884;SDS011;5495;53.252;10.390;2022-12-07T02:18:38;15.67;;;8.83;;
10884;SDS011;5495;53.252;10.390;2022-12-07T02:21:18;17.97;;;10.40;;
10884;SDS011;5495;53.252;10.390;2022-12-07T02:23:57;13.77;;;9.40;;
10884;SDS011;5495;53.252;10.390;2022-12-07T02:29:49;15.03;;;9.47;;
10884;SDS011;5495;53.252;10.390;2022-12-07T02:32:24;13.83;;;9.30;;
10884;SDS011;5495;53.252;10.390;2022-12-07T02:34:58;14.17;;;9.93;;
10884;SDS011;5495;53.252;10.390;2022-12-07T02:37:33;12.73;;;9.37;;
10884;SDS011;5495;53.252;10.390;2022-12-07T02:40:07;13.73;;;8.90;;
10884;SDS011;5495;53.252;10.390;2022-12-07T02:42:40;12.87;;;8.83;;
10884;SDS011;5495;53.252;10.390;2022-12-07T02:45:13;15.67;;;8.57;;
10884;SDS011;5495;53.252;10.390;2022-12-07T02:47:44;14.77;;;8.80;;
10884;SDS011;5495;53.252;10.390;2022-12-07T02:50:17;13.23;;;9.07;;
10884;SDS011;5495;53.252;10.390;2022-12-07T02:52:46;16.27;;;8.03;;
10884;SDS011;5495;53.252;10.390;2022-12-07T02:55:15;12.10;;;7.97;;
10884;SDS011;5495;53.252;10.390;2022-12-07T02:57:54;13.77;;;8.63;;
10884;SDS011;5495;53.252;10.390;2022-12-07T03:00:36;11.37;;;7.70;;
10884;SDS011;5495;53.252;10.390;2022-12-07T03:03:11;15.30;;;7.00;;
10884;SDS011;5495;53.252;10.390;2022-12-07T03:05:45;12.43;;;7.53;;
10884;SDS011;5495;53.252;10.390;2022-12-07T03:08:21;12.50;;;6.17;;
10884;SDS011;5495;53.252;10.390;2022-12-07T03:10:57;10.43;;;6.40;;
10884;SDS011;5495;53.252;10.390;2022-12-07T03:13:28;13.47;;;6.30;;
10884;SDS011;5495;53.252;10.390;2022-12-07T03:16:02;13.10;;;6.27;;
10884;SDS011;5495;53.252;10.390;2022-12-07T03:18:36;9.77;;;5.93;;
10884;SDS011;5495;53.252;10.390;2022-12-07T03:21:08;10.80;;;5.43;;
10884;SDS011;5495;53.252;10.390;2022-12-07T03:23:40;8.07;;;5.77;;
10884;SDS011;5495;53.252;10.390;2022-12-07T03:26:11;9.53;;;5.47;;
10884;SDS011;5495;53.252;10.390;2022-12-07T03:28:42;9.37;;;5.50;;
10884;SDS011;5495;53.252;10.390;2022-12-07T03:31:15;6.07;;;4.40;;
10884;SDS011;5495;53.252;10.390;2022-12-07T03:33:48;8.83;;;5.00;;
10884;SDS011;5495;53.252;10.390;2022-12-07T03:36:21;8.30;;;5.30;;
10884;SDS011;5495;53.252;10.390;2022-12-07T03:38:53;10.43;;;4.73;;
10884;SDS011;5495;53.252;10.390;2022-12-07T03:41:28;10.23;;;5.03;;
10884;SDS011;5495;53.252;10.390;2022-12-07T03:43:59;6.63;;;4.63;;
10884;SDS011;5495;53.252;10.390;2022-12-07T03:46:29;8.13;;;4.90;;
10884;SDS011;5495;53.252;10.390;2022-12-07T03:49:05;10.07;;;5.10;;
10884;SDS011;5495;53.252;10.390;2022-12-07T03:51:37;7.40;;;4.80;;
10884;SDS011;5495;53.252;10.390;2022-12-07T03:54:10;6.20;;;4.07;;
10884;SDS011;5495;53.252;10.390;2022-12-07T03:56:41;7.83;;;4.70;;
10884;SDS011;5495;53.252;10.390;2022-12-07T03:59:09;10.30;;;4.27;;
10884;SDS011;5495;53.252;10.390;2022-12-07T04:01:42;8.30;;;4.53;;
10884;SDS011;5495;53.252;10.390;2022-12-07T04:04:10;6.27;;;4.20;;
10884;SDS011;5495;53.252;10.390;2022-12-07T04:06:37;10.10;;;4.13;;
10884;SDS011;5495;53.252;10.390;2022-12-07T04:09:05;9.40;;;4.30;;
10884;SDS011;5495;53.252;10.390;2022-12-07T04:11:32;6.50;;;3.70;;
10884;SDS011;5495;53.252;10.390;2022-12-07T04:13:59;9.87;;;4.00;;
10884;SDS011;5495;53.252;10.390;2022-12-07T04:16:47;7.33;;;3.57;;
10884;SDS011;5495;53.252;10.390;2022-12-07T04:19:16;6.53;;;3.97;;
10884;SDS011;5495;53.252;10.390;2022-12-07T04:21:45;9.83;;;3.90;;
10884;SDS011;5495;53.252;10.390;2022-12-07T04:24:14;6.00;;;3.77;;
10884;SDS011;5495;53.252;10.390;2022-12-07T04:26:42;6.23;;;3.77;;
10884;SDS011;5495;53.252;10.390;2022-12-07T04:29:10;7.33;;;3.70;;
10884;SDS011;5495;53.252;10.390;2022-12-07T04:31:39;6.50;;;4.10;;
10884;SDS011;5495;53.252;10.390;2022-12-07T04:34:08;6.30;;;3.53;;
10884;SDS011;5495;53.252;10.390;2022-12-07T04:36:36;6.63;;;3.53;;
10884;SDS011;5495;53.252;10.390;2022-12-07T04:39:07;9.93;;;3.70;;
10884;SDS011;5495;53.252;10.390;2022-12-07T04:41:47;5.90;;;3.43;;
10884;SDS011;5495;53.252;10.390;2022-12-07T04:44:15;6.23;;;3.63;;
10884;SDS011;5495;53.252;10.390;2022-12-07T04:46:44;6.30;;;3.80;;
10884;SDS011;5495;53.252;10.390;2022-12-07T04:49:13;8.00;;;3.30;;
10884;SDS011;5495;53.252;10.390;2022-12-07T04:51:41;6.43;;;3.30;;
10884;SDS011;5495;53.252;10.390;2022-12-07T04:54:09;5.73;;;3.23;;
10884;SDS011;5495;53.252;10.390;2022-12-07T04:56:37;5.73;;;2.90;;
10884;SDS011;5495;53.252;10.390;2022-12-07T04:59:05;9.13;;;3.10;;
10884;SDS011;5495;53.252;10.390;2022-12-07T05:01:36;6.47;;;3.40;;
10884;SDS011;5495;53.252;10.390;2022-12-07T05:04:06;4.40;;;2.63;;
10884;SDS011;5495;53.252;10.390;2022-12-07T05:06:36;4.37;;;3.00;;
10884;SDS011;5495;53.252;10.390;2022-12-07T05:09:04;5.60;;;2.53;;
10884;SDS011;5495;53.252;10.390;2022-12-07T05:11:32;4.43;;;2.53;;
10884;SDS011;5495;53.252;10.390;2022-12-07T05:14:08;7.80;;;2.80;;
10884;SDS011;5495;53.252;10.390;2022-12-07T05:16:38;7.13;;;2.77;;
10884;SDS011;5495;53.252;10.390;2022-12-07T05:19:07;4.53;;;2.30;;
10884;SDS011;5495;53.252;10.390;2022-12-07T05:21:37;7.40;;;3.17;;
10884;SDS011;5495;53.252;10.390;2022-12-07T05:24:06;3.53;;;2.07;;
10884;SDS011;5495;53.252;10.390;2022-12-07T05:26:37;5.03;;;2.60;;
10884;SDS011;5495;53.252;10.390;2022-12-07T05:29:04;3.33;;;2.17;;
10884;SDS011;5495;53.252;10.390;2022-12-07T05:31:32;7.30;;;2.17;;
10884;SDS011;5495;53.252;10.390;2022-12-07T05:34:00;4.03;;;2.47;;
10884;SDS011;5495;53.252;10.390;2022-12-07T05:36:30;4.20;;;2.40;;
10884;SDS011;5495;53.252;10.390;2022-12-07T05:39:00;3.60;;;2.17;;
10884;SDS011;5495;53.252;10.390;2022-12-07T05:41:27;2.80;;;2.23;;
10884;SDS011;5495;53.252;10.390;2022-12-07T05:44:12;5.97;;;2.20;;
10884;SDS011;5495;53.252;10.390;2022-12-07T05:46:41;4.07;;;2.30;;
10884;SDS011;5495;53.252;10.390;2022-12-07T05:49:08;4.13;;;2.27;;
10884;SDS011;5495;53.252;10.390;2022-12-07T05:51:36;3.80;;;2.30;;
10884;SDS011;5495;53.252;10.390;2022-12-07T05:54:05;4.20;;;2.10;;
10884;SDS011;5495;53.252;10.390;2022-12-07T05:56:32;4.43;;;1.87;;
10884;SDS011;5495;53.252;10.390;2022-12-07T05:59:02;5.13;;;2.43;;
10884;SDS011;5495;53.252;10.390;2022-12-07T06:01:47;3.37;;;2.40;;
10884;SDS011;5495;53.252;10.390;2022-12-07T06:04:15;3.33;;;1.80;;
10884;SDS011;5495;53.252;10.390;2022-12-07T06:06:42;3.77;;;2.00;;
10884;SDS011;5495;53.252;10.390;2022-12-07T06:09:11;3.83;;;2.07;;
10884;SDS011;5495;53.252;10.390;2022-12-07T06:11:39;2.53;;;2.00;;
10884;SDS011;5495;53.252;10.390;2022-12-07T06:14:26;2.40;;;1.67;;
10884;SDS011;5495;53.252;10.390;2022-12-07T06:16:53;4.60;;;2.10;;
10884;SDS011;5495;53.252;10.390;2022-12-07T06:19:22;2.90;;;2.10;;
10884;SDS011;5495;53.252;10.390;2022-12-07T06:21:49;4.43;;;2.10;;
10884;SDS011;5495;53.252;10.390;2022-12-07T06:24:18;4.77;;;2.27;;
10884;SDS011;5495;53.252;10.390;2022-12-07T06:26:48;4.30;;;1.90;;
10884;SDS011;5495;53.252;10.390;2022-12-07T06:29:16;4.10;;;1.70;;
10884;SDS011;5495;53.252;10.390;2022-12-07T06:31:44;3.70;;;1.97;;
10884;SDS011;5495;53.252;10.390;2022-12-07T06:34:12;3.00;;;1.90;;
10884;SDS011;5495;53.252;10.390;2022-12-07T06:36:42;4.93;;;2.27;;
10884;SDS011;5495;53.252;10.390;2022-12-07T06:39:10;5.17;;;2.20;;
10884;SDS011;5495;53.252;10.390;2022-12-07T06:41:40;4.53;;;2.53;;
10884;SDS011;5495;53.252;10.390;2022-12-07T06:44:07;4.20;;;1.93;;
10884;SDS011;5495;53.252;10.390;2022-12-07T06:46:34;6.60;;;2.30;;
10884;SDS011;5495;53.252;10.390;2022-12-07T06:49:02;2.67;;;1.97;;
10884;SDS011;5495;53.252;10.390;2022-12-07T06:51:30;4.50;;;2.53;;
10884;SDS011;5495;53.252;10.390;2022-12-07T06:53:58;3.97;;;2.53;;
10884;SDS011;5495;53.252;10.390;2022-12-07T06:56:25;3.30;;;2.40;;
10884;SDS011;5495;53.252;10.390;2022-12-07T06:58:55;6.77;;;2.70;;
10884;SDS011;5495;53.252;10.390;2022-12-07T07:01:26;4.27;;;2.20;;
10884;SDS011;5495;53.252;10.390;2022-12-07T07:03:54;5.47;;;2.27;;
10884;SDS011;5495;53.252;10.390;2022-12-07T07:06:23;4.63;;;2.70;;
10884;SDS011;5495;53.252;10.390;2022-12-07T07:08:51;4.23;;;2.13;;
10884;SDS011;5495;53.252;10.390;2022-12-07T07:11:19;5.00;;;2.73;;
10884;SDS011;5495;53.252;10.390;2022-12-07T07:13:46;4.73;;;2.50;;
10884;SDS011;5495;53.252;10.390;2022-12-07T07:16:15;5.70;;;2.40;;
10884;SDS011;5495;53.252;10.390;2022-12-07T07:18:42;3.47;;;2.13;;
10884;SDS011;5495;53.252;10.390;2022-12-07T07:21:10;4.50;;;2.33;;
10884;SDS011;5495;53.252;10.390;2022-12-07T07:23:38;3.63;;;2.60;;
10884;SDS011;5495;53.252;10.390;2022-12-07T07:26:05;5.23;;;2.40;;
10884;SDS011;5495;53.252;10.390;2022-12-07T07:28:33;6.47;;;2.20;;
10884;SDS011;5495;53.252;10.390;2022-12-07T07:31:00;3.43;;;1.80;;
10884;SDS011;5495;53.252;10.390;2022-12-07T07:33:30;2.97;;;1.97;;
10884;SDS011;5495;53.252;10.390;2022-12-07T07:35:57;3.27;;;2.10;;
10884;SDS011;5495;53.252;10.390;2022-12-07T07:38:25;4.60;;;2.10;;
10884;SDS011;5495;53.252;10.390;2022-12-07T07:40:53;4.60;;;1.90;;
10884;SDS011;5495;53.252;10.390;2022-12-07T07:43:20;5.00;;;2.00;;
10884;SDS011;5495;53.252;10.390;2022-12-07T07:45:48;4.50;;;2.67;;
10884;SDS011;5495;53.252;10.390;2022-12-07T07:50:53;7.70;;;2.53;;
10884;SDS011;5495;53.252;10.390;2022-12-07T07:53:21;3.63;;;2.20;;
10884;SDS011;5495;53.252;10.390;2022-12-07T07:55:51;4.80;;;2.20;;
10884;SDS011;5495;53.252;10.390;2022-12-07T07:58:20;6.37;;;2.00;;
10884;SDS011;5495;53.252;10.390;2022-12-07T08:00:48;3.47;;;2.40;;
10884;SDS011;5495;53.252;10.390;2022-12-07T08:03:16;4.53;;;2.00;;
10884;SDS011;5495;53.252;10.390;2022-12-07T08:05:44;3.43;;;2.20;;
10884;SDS011;5495;53.252;10.390;2022-12-07T08:08:14;3.80;;;2.00;;
10884;SDS011;5495;53.252;10.390;2022-12-07T08:10:41;5.30;;;2.50;;
10884;SDS011;5495;53.252;10.390;2022-12-07T08:13:09;4.70;;;2.20;;
10884;SDS011;5495;53.252;10.390;2022-12-07T08:15:40;4.47;;;2.33;;
10884;SDS011;5495;53.252;10.390;2022-12-07T08:18:10;3.77;;;2.30;;
10884;SDS011;5495;53.252;10.390;2022-12-07T08:20:39;3.70;;;1.90;;
10884;SDS011;5495;53.252;10.390;2022-12-07T08:23:10;5.03;;;2.07;;
10884;SDS011;5495;53.252;10.390;2022-12-07T08:25:40;5.47;;;1.97;;
10884;SDS011;5495;53.252;10.390;2022-12-07T08:28:09;5.03;;;2.00;;
10884;SDS011;5495;53.252;10.390;2022-12-07T08:30:36;4.47;;;2.40;;
10884;SDS011;5495;53.252;10.390;2022-12-07T08:33:04;3.53;;;2.10;;
10884;SDS011;5495;53.252;10.390;2022-12-07T08:35:35;5.03;;;1.97;;
10884;SDS011;5495;53.252;10.390;2022-12-07T08:38:04;4.33;;;2.03;;
10884;SDS011;5495;53.252;10.390;2022-12-07T08:40:31;4.93;;;2.30;;
10884;SDS011;5495;53.252;10.390;2022-12-07T08:43:00;4.80;;;2.17;;
10884;SDS011;5495;53.252;10.390;2022-12-07T08:45:28;3.93;;;2.00;;
10884;SDS011;5495;53.252;10.390;2022-12-07T08:47:58;3.33;;;1.80;;
10884;SDS011;5495;53.252;10.390;2022-12-07T08:50:28;2.30;;;1.80;;
10884;SDS011;5495;53.252;10.390;2022-12-07T08:52:56;2.80;;;1.80;;
10884;SDS011;5495;53.252;10.390;2022-12-07T08:55:25;2.73;;;1.90;;
10884;SDS011;5495;53.252;10.390;2022-12-07T08:57:53;2.33;;;1.80;;
10884;SDS011;5495;53.252;10.390;2022-12-07T09:00:23;4.33;;;2.20;;
10884;SDS011;5495;53.252;10.390;2022-12-07T09:02:51;3.73;;;1.63;;
10884;SDS011;5495;53.252;10.390;2022-12-07T09:05:22;2.87;;;1.70;;
10884;SDS011;5495;53.252;10.390;2022-12-07T09:07:51;2.63;;;1.70;;
10884;SDS011;5495;53.252;10.390;2022-12-07T09:10:23;3.27;;;2.07;;
10884;SDS011;5495;53.252;10.390;2022-12-07T09:12:51;3.13;;;1.80;;
10884;SDS011;5495;53.252;10.390;2022-12-07T09:15:18;2.00;;;1.50;;
10884;SDS011;5495;53.252;10.390;2022-12-07T09:17:48;3.30;;;1.40;;
10884;SDS011;5495;53.252;10.390;2022-12-07T09:20:16;4.43;;;1.63;;
10884;SDS011;5495;53.252;10.390;2022-12-07T09:22:43;3.97;;;1.87;;
10884;SDS011;5495;53.252;10.390;2022-12-07T09:25:11;2.77;;;1.73;;
10884;SDS011;5495;53.252;10.390;2022-12-07T09:27:38;4.97;;;1.93;;
10884;SDS011;5495;53.252;10.390;2022-12-07T09:30:06;4.73;;;1.90;;
10884;SDS011;5495;53.252;10.390;2022-12-07T09:32:34;4.50;;;1.90;;
10884;SDS011;5495;53.252;10.390;2022-12-07T09:35:03;5.90;;;1.93;;
10884;SDS011;5495;53.252;10.390;2022-12-07T09:37:30;4.87;;;1.90;;
10884;SDS011;5495;53.252;10.390;2022-12-07T09:40:01;4.07;;;1.63;;
10884;SDS011;5495;53.252;10.390;2022-12-07T09:42:29;4.13;;;1.60;;
10884;SDS011;5495;53.252;10.390;2022-12-07T09:45:02;2.43;;;1.90;;
10884;SDS011;5495;53.252;10.390;2022-12-07T09:47:32;2.63;;;1.60;;
10884;SDS011;5495;53.252;10.390;2022-12-07T09:50:00;4.27;;;1.73;;
10884;SDS011;5495;53.252;10.390;2022-12-07T09:52:32;5.27;;;1.80;;
10884;SDS011;5495;53.252;10.390;2022-12-07T09:55:00;2.83;;;1.50;;
10884;SDS011;5495;53.252;10.390;2022-12-07T09:57:29;4.07;;;1.70;;
10884;SDS011;5495;53.252;10.390;2022-12-07T10:00:00;3.70;;;1.60;;
10884;SDS011;5495;53.252;10.390;2022-12-07T10:02:34;3.07;;;1.70;;
10884;SDS011;5495;53.252;10.390;2022-12-07T10:05:07;4.93;;;1.87;;
10884;SDS011;5495;53.252;10.390;2022-12-07T10:07:40;3.20;;;1.73;;
10884;SDS011;5495;53.252;10.390;2022-12-07T10:10:12;3.53;;;1.77;;
10884;SDS011;5495;53.252;10.390;2022-12-07T10:12:54;3.43;;;1.60;;
10884;SDS011;5495;53.252;10.390;2022-12-07T10:15:23;5.27;;;1.90;;
10884;SDS011;5495;53.252;10.390;2022-12-07T10:18:16;3.73;;;1.40;;
10884;SDS011;5495;53.252;10.390;2022-12-07T10:20:47;5.17;;;1.93;;
10884;SDS011;5495;53.252;10.390;2022-12-07T10:23:16;7.63;;;2.43;;
10884;SDS011;5495;53.252;10.390;2022-12-07T10:25:44;4.63;;;1.80;;
10884;SDS011;5495;53.252;10.390;2022-12-07T10:28:14;6.20;;;1.83;;
10884;SDS011;5495;53.252;10.390;2022-12-07T10:30:51;3.33;;;1.40;;
10884;SDS011;5495;53.252;10.390;2022-12-07T10:33:32;3.07;;;1.37;;
10884;SDS011;5495;53.252;10.390;2022-12-07T10:36:15;3.40;;;1.00;;
10884;SDS011;5495;53.252;10.390;2022-12-07T10:38:46;4.43;;;1.70;;
10884;SDS011;5495;53.252;10.390;2022-12-07T10:41:14;4.10;;;1.33;;
10884;SDS011;5495;53.252;10.390;2022-12-07T10:43:49;6.80;;;1.33;;
10884;SDS011;5495;53.252;10.390;2022-12-07T10:46:22;8.27;;;1.37;;
10884;SDS011;5495;53.252;10.390;2022-12-07T10:49:05;2.63;;;1.00;;
10884;SDS011;5495;53.252;10.390;2022-12-07T10:51:51;4.33;;;1.17;;
10884;SDS011;5495;53.252;10.390;2022-12-07T10:54:29;6.77;;;1.00;;
10884;SDS011;5495;53.252;10.390;2022-12-07T10:57:16;2.60;;;1.00;;
10884;SDS011;5495;53.252;10.390;2022-12-07T10:59:57;3.83;;;1.10;;
10884;SDS011;5495;53.252;10.390;2022-12-07T11:05:24;3.43;;;0.87;;
10884;SDS011;5495;53.252;10.390;2022-12-07T11:08:01;2.40;;;0.93;;
10884;SDS011;5495;53.252;10.390;2022-12-07T11:10:39;4.53;;;0.80;;
10884;SDS011;5495;53.252;10.390;2022-12-07T11:13:23;1.77;;;0.87;;
10884;SDS011;5495;53.252;10.390;2022-12-07T11:16:02;3.83;;;0.80;;
10884;SDS011;5495;53.252;10.390;2022-12-07T11:18:48;3.67;;;1.00;;
10884;SDS011;5495;53.252;10.390;2022-12-07T11:21:27;2.17;;;1.03;;
10884;SDS011;5495;53.252;10.390;2022-12-07T11:24:04;2.10;;;0.97;;
10884;SDS011;5495;53.252;10.390;2022-12-07T11:26:42;4.13;;;1.20;;
10884;SDS011;5495;53.252;10.390;2022-12-07T11:29:29;4.47;;;1.20;;
10884;SDS011;5495;53.252;10.390;2022-12-07T11:32:15;3.20;;;1.00;;
10884;SDS011;5495;53.252;10.390;2022-12-07T11:34:51;6.60;;;1.30;;
10884;SDS011;5495;53.252;10.390;2022-12-07T11:37:27;3.40;;;1.40;;
10884;SDS011;5495;53.252;10.390;2022-12-07T11:40:05;2.93;;;0.70;;
10884;SDS011;5495;53.252;10.390;2022-12-07T11:42:44;3.33;;;1.00;;
10884;SDS011;5495;53.252;10.390;2022-12-07T11:45:19;5.97;;;1.30;;
10884;SDS011;5495;53.252;10.390;2022-12-07T11:47:51;4.47;;;1.17;;
10884;SDS011;5495;53.252;10.390;2022-12-07T11:50:24;3.97;;;1.20;;
10884;SDS011;5495;53.252;10.390;2022-12-07T11:52:58;3.60;;;1.20;;
10884;SDS011;5495;53.252;10.390;2022-12-07T11:55:38;2.10;;;1.20;;
10884;SDS011;5495;53.252;10.390;2022-12-07T11:58:13;3.00;;;1.20;;
10884;SDS011;5495;53.252;10.390;2022-12-07T12:00:49;3.20;;;0.93;;
10884;SDS011;5495;53.252;10.390;2022-12-07T12:03:23;5.60;;;1.50;;
10884;SDS011;5495;53.252;10.390;2022-12-07T12:05:57;3.13;;;1.10;;
10884;SDS011;5495;53.252;10.390;2022-12-07T12:08:26;5.20;;;1.07;;
10884;SDS011;5495;53.252;10.390;2022-12-07T12:11:00;3.73;;;1.40;;
10884;SDS011;5495;53.252;10.390;2022-12-07T12:13:51;4.10;;;1.40;;
10884;SDS011;5495;53.252;10.390;2022-12-07T12:19:41;4.07;;;1.40;;
10884;SDS011;5495;53.252;10.390;2022-12-07T12:22:12;4.83;;;1.40;;
10884;SDS011;5495;53.252;10.390;2022-12-07T12:24:43;3.57;;;1.13;;
10884;SDS011;5495;53.252;10.390;2022-12-07T12:27:17;5.03;;;1.30;;
10884;SDS011;5495;53.252;10.390;2022-12-07T12:29:51;3.33;;;1.20;;
10884;SDS011;5495;53.252;10.390;2022-12-07T12:32:21;4.93;;;1.40;;
10884;SDS011;5495;53.252;10.390;2022-12-07T12:35:03;5.87;;;1.30;;
10884;SDS011;5495;53.252;10.390;2022-12-07T12:37:49;3.83;;;1.20;;
10884;SDS011;5495;53.252;10.390;2022-12-07T12:40:38;5.70;;;1.17;;
10884;SDS011;5495;53.252;10.390;2022-12-07T12:55:16;5.40;;;1.10;;
10884;SDS011;5495;53.252;10.390;2022-12-07T12:57:47;4.30;;;1.37;;
10884;SDS011;5495;53.252;10.390;2022-12-07T13:00:42;4.83;;;1.40;;
10884;SDS011;5495;53.252;10.390;2022-12-07T13:03:20;5.57;;;1.30;;
10884;SDS011;5495;53.252;10.390;2022-12-07T13:08:44;5.87;;;1.10;;
10884;SDS011;5495;53.252;10.390;2022-12-07T13:11:17;6.40;;;1.20;;
10884;SDS011;5495;53.252;10.390;2022-12-07T13:13:52;4.30;;;1.33;;
10884;SDS011;5495;53.252;10.390;2022-12-07T13:16:58;6.13;;;1.50;;
10884;SDS011;5495;53.252;10.390;2022-12-07T13:22:39;3.33;;;1.20;;
10884;SDS011;5495;53.252;10.390;2022-12-07T13:25:18;4.80;;;1.40;;
10884;SDS011;5495;53.252;10.390;2022-12-07T13:28:09;4.80;;;1.40;;
10884;SDS011;5495;53.252;10.390;2022-12-07T13:30:45;2.50;;;1.00;;
10884;SDS011;5495;53.252;10.390;2022-12-07T13:33:37;4.63;;;1.30;;
10884;SDS011;5495;53.252;10.390;2022-12-07T13:36:09;2.33;;;1.17;;
10884;SDS011;5495;53.252;10.390;2022-12-07T13:38:48;3.43;;;1.60;;
10884;SDS011;5495;53.252;10.390;2022-12-07T13:41:18;7.27;;;1.53;;
10884;SDS011;5495;53.252;10.390;2022-12-07T13:43:50;6.63;;;1.53;;
10884;SDS011;5495;53.252;10.390;2022-12-07T13:46:22;4.70;;;1.17;;
10884;SDS011;5495;53.252;10.390;2022-12-07T13:48:53;7.93;;;1.23;;
10884;SDS011;5495;53.252;10.390;2022-12-07T13:51:24;8.67;;;1.80;;
10884;SDS011;5495;53.252;10.390;2022-12-07T13:53:54;6.63;;;1.57;;
10884;SDS011;5495;53.252;10.390;2022-12-07T13:56:27;3.40;;;1.20;;
10884;SDS011;5495;53.252;10.390;2022-12-07T13:59:03;5.30;;;1.63;;
10884;SDS011;5495;53.252;10.390;2022-12-07T14:01:40;3.93;;;1.30;;
10884;SDS011;5495;53.252;10.390;2022-12-07T14:04:16;6.13;;;1.50;;
10884;SDS011;5495;53.252;10.390;2022-12-07T14:09:57;5.13;;;1.50;;
10884;SDS011;5495;53.252;10.390;2022-12-07T14:12:29;4.20;;;1.10;;
10884;SDS011;5495;53.252;10.390;2022-12-07T14:14:59;7.83;;;1.50;;
10884;SDS011;5495;53.252;10.390;2022-12-07T14:17:35;7.83;;;1.40;;
10884;SDS011;5495;53.252;10.390;2022-12-07T14:20:29;3.77;;;1.10;;
10884;SDS011;5495;53.252;10.390;2022-12-07T14:23:03;2.63;;;1.10;;
10884;SDS011;5495;53.252;10.390;2022-12-07T14:25:47;4.87;;;1.33;;
10884;SDS011;5495;53.252;10.390;2022-12-07T14:28:24;4.77;;;1.17;;
10884;SDS011;5495;53.252;10.390;2022-12-07T14:30:53;6.23;;;1.20;;
10884;SDS011;5495;53.252;10.390;2022-12-07T14:33:23;4.30;;;1.03;;
10884;SDS011;5495;53.252;10.390;2022-12-07T14:35:51;2.20;;;1.03;;
10884;SDS011;5495;53.252;10.390;2022-12-07T14:38:22;5.87;;;1.00;;
10884;SDS011;5495;53.252;10.390;2022-12-07T14:40:50;2.93;;;0.83;;
10884;SDS011;5495;53.252;10.390;2022-12-07T14:43:18;6.60;;;1.40;;
10884;SDS011;5495;53.252;10.390;2022-12-07T14:45:50;3.23;;;1.40;;
10884;SDS011;5495;53.252;10.390;2022-12-07T14:48:18;3.60;;;1.27;;
10884;SDS011;5495;53.252;10.390;2022-12-07T14:50:49;4.33;;;1.27;;
10884;SDS011;5495;53.252;10.390;2022-12-07T14:53:23;4.67;;;1.43;;
10884;SDS011;5495;53.252;10.390;2022-12-07T14:55:55;4.60;;;1.63;;
10884;SDS011;5495;53.252;10.390;2022-12-07T14:58:25;4.70;;;1.50;;
10884;SDS011;5495;53.252;10.390;2022-12-07T15:00:54;4.10;;;1.30;;
10884;SDS011;5495;53.252;10.390;2022-12-07T15:03:21;1.97;;;1.00;;
10884;SDS011;5495;53.252;10.390;2022-12-07T15:05:49;7.70;;;1.30;;
10884;SDS011;5495;53.252;10.390;2022-12-07T15:08:16;4.33;;;1.50;;
10884;SDS011;5495;53.252;10.390;2022-12-07T15:10:45;2.40;;;1.40;;
10884;SDS011;5495;53.252;10.390;2022-12-07T15:13:14;4.93;;;1.90;;
10884;SDS011;5495;53.252;10.390;2022-12-07T15:15:55;2.93;;;1.40;;
10884;SDS011;5495;53.252;10.390;2022-12-07T15:18:23;9.90;;;1.60;;
10884;SDS011;5495;53.252;10.390;2022-12-07T15:20:50;4.10;;;1.60;;
10884;SDS011;5495;53.252;10.390;2022-12-07T15:23:19;3.83;;;1.50;;
10884;SDS011;5495;53.252;10.390;2022-12-07T15:25:48;3.17;;;1.37;;
10884;SDS011;5495;53.252;10.390;2022-12-07T15:28:16;3.50;;;1.30;;
10884;SDS011;5495;53.252;10.390;2022-12-07T15:30:44;3.97;;;1.47;;
10884;SDS011;5495;53.252;10.390;2022-12-07T15:33:12;3.13;;;1.20;;
10884;SDS011;5495;53.252;10.390;2022-12-07T15:35:40;2.47;;;1.60;;
10884;SDS011;5495;53.252;10.390;2022-12-07T15:38:07;4.17;;;1.37;;
10884;SDS011;5495;53.252;10.390;2022-12-07T15:40:35;3.33;;;1.30;;
10884;SDS011;5495;53.252;10.390;2022-12-07T15:43:04;2.37;;;1.33;;
10884;SDS011;5495;53.252;10.390;2022-12-07T15:45:53;2.03;;;1.30;;